sensor_id;sensor_type;location;lat;lon;timestamp;temperature;humidity
6690;DHT22;3382;51.576;8.076;2023-04-24T00:00:54;13.70;99.90
6690;DHT22;3382;51.576;8.076;2023-04-24T00:03:22;13.70;99.90
6690;DHT22;3382;51.576;8.076;2023-04-24T00:05:48;13.70;99.90
6690;DHT22;3382;51.576;8.076;2023-04-24T00:08:14;13.70;99.90
6690;DHT22;3382;51.576;8.076;2023-04-24T00:10:39;13.60;99.90
6690;DHT22;3382;51.576;8.076;2023-04-24T00:13:06;13.60;99.90
6690;DHT22;3382;51.576;8.076;2023-04-24T00:15:31;13.60;99.90
6690;DHT22;3382;51.576;8.076;2023-04-24T00:17:57;13.60;99.90
6690;DHT22;3382;51.576;8.076;2023-04-24T00:20:23;13.60;99.90
6690;DHT22;3382;51.576;8.076;2023-04-24T00:22:48;13.60;99.90
6690;DHT22;3382;51.576;8.076;2023-04-24T00:25:14;13.50;99.90
6690;DHT22;3382;51.576;8.076;2023-04-24T00:27:40;13.50;99.90
6690;DHT22;3382;51.576;8.076;2023-04-24T00:30:06;13.50;99.90
6690;DHT22;3382;51.576;8.076;2023-04-24T00:32:32;13.50;99.90
6690;DHT22;3382;51.576;8.076;2023-04-24T00:34:57;13.50;99.90
6690;DHT22;3382;51.576;8.076;2023-04-24T00:37:23;13.40;99.90
6690;DHT22;3382;51.576;8.076;2023-04-24T00:39:48;13.40;99.90
6690;DHT22;3382;51.576;8.076;2023-04-24T00:42:14;13.30;99.90
6690;DHT22;3382;51.576;8.076;2023-04-24T00:44:40;13.30;99.90
6690;DHT22;3382;51.576;8.076;2023-04-24T00:47:06;13.30;99.90
6690;DHT22;3382;51.576;8.076;2023-04-24T00:49:32;13.20;99.90
6690;DHT22;3382;51.576;8.076;2023-04-24T00:51:58;13.30;99.90
6690;DHT22;3382;51.576;8.076;2023-04-24T00:54:24;13.30;99.90
6690;DHT22;3382;51.576;8.076;2023-04-24T00:56:50;13.20;99.90
6690;DHT22;3382;51.576;8.076;2023-04-24T00:59:17;13.10;99.90
6690;DHT22;3382;51.576;8.076;2023-04-24T01:01:44;13.10;99.90
6690;DHT22;3382;51.576;8.076;2023-04-24T01:04:11;13.10;99.90
6690;DHT22;3382;51.576;8.076;2023-04-24T01:06:39;13.10;99.90
6690;DHT22;3382;51.576;8.076;2023-04-24T01:09:05;13.00;99.90
6690;DHT22;3382;51.576;8.076;2023-04-24T01:11:31;13.00;99.90
6690;DHT22;3382;51.576;8.076;2023-04-24T01:13:57;13.00;99.90
6690;DHT22;3382;51.576;8.076;2023-04-24T01:16:22;13.00;99.90
6690;DHT22;3382;51.576;8.076;2023-04-24T01:18:48;12.90;99.90
6690;DHT22;3382;51.576;8.076;2023-04-24T01:21:15;12.90;99.90
6690;DHT22;3382;51.576;8.076;2023-04-24T01:23:44;12.90;99.90
6690;DHT22;3382;51.576;8.076;2023-04-24T01:26:11;12.90;99.90
6690;DHT22;3382;51.576;8.076;2023-04-24T01:28:37;12.90;99.90
6690;DHT22;3382;51.576;8.076;2023-04-24T01:31:03;12.90;99.90
6690;DHT22;3382;51.576;8.076;2023-04-24T01:33:28;12.90;99.90
6690;DHT22;3382;51.576;8.076;2023-04-24T01:35:54;12.90;99.90
6690;DHT22;3382;51.576;8.076;2023-04-24T01:38:20;12.90;99.90
6690;DHT22;3382;51.576;8.076;2023-04-24T01:40:46;13.00;99.90
6690;DHT22;3382;51.576;8.076;2023-04-24T01:43:12;12.90;99.90
6690;DHT22;3382;51.576;8.076;2023-04-24T01:45:38;12.90;99.90
6690;DHT22;3382;51.576;8.076;2023-04-24T01:48:03;12.90;99.90
6690;DHT22;3382;51.576;8.076;2023-04-24T01:50:29;12.90;99.90
6690;DHT22;3382;51.576;8.076;2023-04-24T01:52:55;12.90;99.90
6690;DHT22;3382;51.576;8.076;2023-04-24T01:55:21;12.80;99.90
6690;DHT22;3382;51.576;8.076;2023-04-24T01:57:47;12.80;99.90
6690;DHT22;3382;51.576;8.076;2023-04-24T02:00:13;12.80;99.90
6690;DHT22;3382;51.576;8.076;2023-04-24T02:02:40;12.80;99.90
6690;DHT22;3382;51.576;8.076;2023-04-24T02:05:07;12.80;99.90
6690;DHT22;3382;51.576;8.076;2023-04-24T02:07:33;12.70;99.90
6690;DHT22;3382;51.576;8.076;2023-04-24T02:09:59;12.70;99.90
6690;DHT22;3382;51.576;8.076;2023-04-24T02:12:24;12.70;99.90
6690;DHT22;3382;51.576;8.076;2023-04-24T02:14:50;12.70;99.90
6690;DHT22;3382;51.576;8.076;2023-04-24T02:17:16;12.60;99.90
6690;DHT22;3382;51.576;8.076;2023-04-24T02:19:42;12.60;99.90
6690;DHT22;3382;51.576;8.076;2023-04-24T02:22:07;12.60;99.90
6690;DHT22;3382;51.576;8.076;2023-04-24T02:24:33;12.60;99.90
6690;DHT22;3382;51.576;8.076;2023-04-24T02:26:59;12.50;99.90
6690;DHT22;3382;51.576;8.076;2023-04-24T02:29:25;12.40;99.90
6690;DHT22;3382;51.576;8.076;2023-04-24T02:31:50;12.40;99.90
6690;DHT22;3382;51.576;8.076;2023-04-24T02:34:16;12.40;99.90
6690;DHT22;3382;51.576;8.076;2023-04-24T02:36:42;12.40;99.90
6690;DHT22;3382;51.576;8.076;2023-04-24T02:39:07;12.40;99.90
6690;DHT22;3382;51.576;8.076;2023-04-24T02:41:33;12.40;99.90
6690;DHT22;3382;51.576;8.076;2023-04-24T02:43:59;12.40;99.90
6690;DHT22;3382;51.576;8.076;2023-04-24T02:46:25;12.40;99.90
6690;DHT22;3382;51.576;8.076;2023-04-24T02:48:50;12.40;99.90
6690;DHT22;3382;51.576;8.076;2023-04-24T02:51:16;12.50;99.90
6690;DHT22;3382;51.576;8.076;2023-04-24T02:53:41;12.60;99.90
6690;DHT22;3382;51.576;8.076;2023-04-24T02:56:07;12.60;99.90
6690;DHT22;3382;51.576;8.076;2023-04-24T02:58:33;12.70;99.90
6690;DHT22;3382;51.576;8.076;2023-04-24T03:00:59;12.80;99.90
6690;DHT22;3382;51.576;8.076;2023-04-24T03:03:25;12.90;99.90
6690;DHT22;3382;51.576;8.076;2023-04-24T03:05:51;12.90;99.90
6690;DHT22;3382;51.576;8.076;2023-04-24T03:08:16;12.90;99.90
6690;DHT22;3382;51.576;8.076;2023-04-24T03:10:43;13.00;99.90
6690;DHT22;3382;51.576;8.076;2023-04-24T03:13:08;13.10;99.90
6690;DHT22;3382;51.576;8.076;2023-04-24T03:15:34;13.20;99.90
6690;DHT22;3382;51.576;8.076;2023-04-24T03:18:00;13.30;99.90
6690;DHT22;3382;51.576;8.076;2023-04-24T03:20:26;13.80;99.90
6690;DHT22;3382;51.576;8.076;2023-04-24T03:22:51;14.30;99.90
6690;DHT22;3382;51.576;8.076;2023-04-24T03:25:17;14.30;99.90
6690;DHT22;3382;51.576;8.076;2023-04-24T03:27:43;14.00;99.90
6690;DHT22;3382;51.576;8.076;2023-04-24T03:30:09;14.00;99.90
6690;DHT22;3382;51.576;8.076;2023-04-24T03:32:34;13.80;99.90
6690;DHT22;3382;51.576;8.076;2023-04-24T03:35:00;13.80;99.90
6690;DHT22;3382;51.576;8.076;2023-04-24T03:37:26;13.60;99.90
6690;DHT22;3382;51.576;8.076;2023-04-24T03:39:52;13.50;99.90
6690;DHT22;3382;51.576;8.076;2023-04-24T03:42:17;13.30;99.90
6690;DHT22;3382;51.576;8.076;2023-04-24T03:44:43;13.20;99.90
6690;DHT22;3382;51.576;8.076;2023-04-24T03:47:09;13.00;99.90
6690;DHT22;3382;51.576;8.076;2023-04-24T03:49:35;13.10;99.90
6690;DHT22;3382;51.576;8.076;2023-04-24T03:52:00;13.00;99.90
6690;DHT22;3382;51.576;8.076;2023-04-24T03:54:26;13.10;99.90
6690;DHT22;3382;51.576;8.076;2023-04-24T03:56:51;13.80;99.90
6690;DHT22;3382;51.576;8.076;2023-04-24T03:59:17;14.40;99.90
6690;DHT22;3382;51.576;8.076;2023-04-24T04:01:43;14.90;99.90
6690;DHT22;3382;51.576;8.076;2023-04-24T04:04:08;15.20;99.90
6690;DHT22;3382;51.576;8.076;2023-04-24T04:06:34;15.70;99.90
6690;DHT22;3382;51.576;8.076;2023-04-24T04:09:01;16.20;99.90
6690;DHT22;3382;51.576;8.076;2023-04-24T04:11:27;16.70;99.90
6690;DHT22;3382;51.576;8.076;2023-04-24T04:13:52;17.20;99.90
6690;DHT22;3382;51.576;8.076;2023-04-24T04:16:18;17.50;99.90
6690;DHT22;3382;51.576;8.076;2023-04-24T04:18:44;17.80;99.90
6690;DHT22;3382;51.576;8.076;2023-04-24T04:21:10;17.80;99.90
6690;DHT22;3382;51.576;8.076;2023-04-24T04:23:35;18.10;99.90
6690;DHT22;3382;51.576;8.076;2023-04-24T04:26:02;18.50;99.90
6690;DHT22;3382;51.576;8.076;2023-04-24T04:28:29;18.70;99.90
6690;DHT22;3382;51.576;8.076;2023-04-24T04:30:56;18.80;99.90
6690;DHT22;3382;51.576;8.076;2023-04-24T04:33:26;19.00;99.90
6690;DHT22;3382;51.576;8.076;2023-04-24T04:35:52;19.00;99.90
6690;DHT22;3382;51.576;8.076;2023-04-24T04:38:21;18.40;99.90
6690;DHT22;3382;51.576;8.076;2023-04-24T04:40:46;18.00;99.90
6690;DHT22;3382;51.576;8.076;2023-04-24T04:43:12;16.80;99.90
6690;DHT22;3382;51.576;8.076;2023-04-24T04:45:41;15.50;99.90
6690;DHT22;3382;51.576;8.076;2023-04-24T04:48:08;14.70;99.90
6690;DHT22;3382;51.576;8.076;2023-04-24T04:50:35;14.30;99.90
6690;DHT22;3382;51.576;8.076;2023-04-24T04:53:00;13.90;99.90
6690;DHT22;3382;51.576;8.076;2023-04-24T04:55:26;13.50;99.90
6690;DHT22;3382;51.576;8.076;2023-04-24T04:57:52;13.50;99.90
6690;DHT22;3382;51.576;8.076;2023-04-24T05:00:18;13.80;99.90
6690;DHT22;3382;51.576;8.076;2023-04-24T05:02:44;14.00;99.90
6690;DHT22;3382;51.576;8.076;2023-04-24T05:05:10;15.20;99.90
6690;DHT22;3382;51.576;8.076;2023-04-24T05:07:36;16.00;99.90
6690;DHT22;3382;51.576;8.076;2023-04-24T05:10:01;16.70;99.90
6690;DHT22;3382;51.576;8.076;2023-04-24T05:12:27;17.00;99.90
6690;DHT22;3382;51.576;8.076;2023-04-24T05:14:52;17.40;99.90
6690;DHT22;3382;51.576;8.076;2023-04-24T05:17:18;17.50;99.90
6690;DHT22;3382;51.576;8.076;2023-04-24T05:19:44;17.80;99.90
6690;DHT22;3382;51.576;8.076;2023-04-24T05:22:10;18.10;99.90
6690;DHT22;3382;51.576;8.076;2023-04-24T05:24:37;18.20;99.90
6690;DHT22;3382;51.576;8.076;2023-04-24T05:27:03;18.40;99.90
6690;DHT22;3382;51.576;8.076;2023-04-24T05:29:30;18.70;99.90
6690;DHT22;3382;51.576;8.076;2023-04-24T05:31:59;18.80;99.90
6690;DHT22;3382;51.576;8.076;2023-04-24T05:34:25;18.80;99.90
6690;DHT22;3382;51.576;8.076;2023-04-24T05:36:51;18.90;99.90
6690;DHT22;3382;51.576;8.076;2023-04-24T05:39:17;19.20;99.90
6690;DHT22;3382;51.576;8.076;2023-04-24T05:41:43;19.30;99.90
6690;DHT22;3382;51.576;8.076;2023-04-24T05:44:09;19.50;99.90
6690;DHT22;3382;51.576;8.076;2023-04-24T05:46:34;19.70;99.90
6690;DHT22;3382;51.576;8.076;2023-04-24T05:49:00;20.00;99.90
6690;DHT22;3382;51.576;8.076;2023-04-24T05:51:26;20.10;99.90
6690;DHT22;3382;51.576;8.076;2023-04-24T05:53:52;20.10;99.90
6690;DHT22;3382;51.576;8.076;2023-04-24T05:56:18;20.10;99.90
6690;DHT22;3382;51.576;8.076;2023-04-24T05:58:44;20.00;99.90
6690;DHT22;3382;51.576;8.076;2023-04-24T06:01:10;19.20;99.90
6690;DHT22;3382;51.576;8.076;2023-04-24T06:03:35;18.70;99.90
6690;DHT22;3382;51.576;8.076;2023-04-24T06:06:01;18.30;99.90
6690;DHT22;3382;51.576;8.076;2023-04-24T06:08:27;17.60;99.90
6690;DHT22;3382;51.576;8.076;2023-04-24T06:10:52;17.30;99.90
6690;DHT22;3382;51.576;8.076;2023-04-24T06:13:18;17.00;99.90
6690;DHT22;3382;51.576;8.076;2023-04-24T06:15:43;16.50;99.90
6690;DHT22;3382;51.576;8.076;2023-04-24T06:18:09;16.20;99.90
6690;DHT22;3382;51.576;8.076;2023-04-24T06:20:38;15.90;99.90
6690;DHT22;3382;51.576;8.076;2023-04-24T06:23:04;15.50;99.90
6690;DHT22;3382;51.576;8.076;2023-04-24T06:25:29;15.20;99.90
6690;DHT22;3382;51.576;8.076;2023-04-24T06:27:56;14.90;99.90
6690;DHT22;3382;51.576;8.076;2023-04-24T06:30:22;14.70;99.90
6690;DHT22;3382;51.576;8.076;2023-04-24T06:32:48;14.60;99.90
6690;DHT22;3382;51.576;8.076;2023-04-24T06:35:13;14.50;99.90
6690;DHT22;3382;51.576;8.076;2023-04-24T06:37:40;14.30;99.90
6690;DHT22;3382;51.576;8.076;2023-04-24T06:40:06;14.40;99.90
6690;DHT22;3382;51.576;8.076;2023-04-24T06:42:32;14.30;99.90
6690;DHT22;3382;51.576;8.076;2023-04-24T06:44:58;14.30;99.90
6690;DHT22;3382;51.576;8.076;2023-04-24T06:47:24;14.50;99.90
6690;DHT22;3382;51.576;8.076;2023-04-24T06:49:49;14.30;99.90
6690;DHT22;3382;51.576;8.076;2023-04-24T06:52:16;14.40;99.90
6690;DHT22;3382;51.576;8.076;2023-04-24T06:54:42;14.40;99.90
6690;DHT22;3382;51.576;8.076;2023-04-24T06:57:08;14.40;99.90
6690;DHT22;3382;51.576;8.076;2023-04-24T06:59:34;14.30;99.90
6690;DHT22;3382;51.576;8.076;2023-04-24T07:01:59;14.20;99.90
6690;DHT22;3382;51.576;8.076;2023-04-24T07:04:25;14.00;99.90
6690;DHT22;3382;51.576;8.076;2023-04-24T07:06:51;14.00;99.90
6690;DHT22;3382;51.576;8.076;2023-04-24T07:09:19;14.00;99.90
6690;DHT22;3382;51.576;8.076;2023-04-24T07:11:45;14.00;99.90
6690;DHT22;3382;51.576;8.076;2023-04-24T07:14:11;13.90;99.90
6690;DHT22;3382;51.576;8.076;2023-04-24T07:16:37;14.10;99.90
6690;DHT22;3382;51.576;8.076;2023-04-24T07:19:03;14.50;99.90
6690;DHT22;3382;51.576;8.076;2023-04-24T07:21:28;14.40;99.90
6690;DHT22;3382;51.576;8.076;2023-04-24T07:23:56;14.40;99.90
6690;DHT22;3382;51.576;8.076;2023-04-24T07:26:22;14.50;99.90
6690;DHT22;3382;51.576;8.076;2023-04-24T07:28:47;14.30;99.90
6690;DHT22;3382;51.576;8.076;2023-04-24T07:31:13;14.20;99.90
6690;DHT22;3382;51.576;8.076;2023-04-24T07:33:38;14.20;99.90
6690;DHT22;3382;51.576;8.076;2023-04-24T07:36:04;14.30;99.90
6690;DHT22;3382;51.576;8.076;2023-04-24T07:38:30;14.30;99.90
6690;DHT22;3382;51.576;8.076;2023-04-24T07:40:56;14.70;99.90
6690;DHT22;3382;51.576;8.076;2023-04-24T07:43:22;14.50;99.90
6690;DHT22;3382;51.576;8.076;2023-04-24T07:45:49;14.30;99.90
6690;DHT22;3382;51.576;8.076;2023-04-24T07:48:15;14.30;99.90
6690;DHT22;3382;51.576;8.076;2023-04-24T07:50:42;14.30;99.90
6690;DHT22;3382;51.576;8.076;2023-04-24T07:53:07;14.30;99.90
6690;DHT22;3382;51.576;8.076;2023-04-24T07:55:33;14.30;99.90
6690;DHT22;3382;51.576;8.076;2023-04-24T07:57:59;14.10;99.90
6690;DHT22;3382;51.576;8.076;2023-04-24T08:00:24;13.90;99.90
6690;DHT22;3382;51.576;8.076;2023-04-24T08:02:50;14.10;99.90
6690;DHT22;3382;51.576;8.076;2023-04-24T08:05:15;14.40;99.90
6690;DHT22;3382;51.576;8.076;2023-04-24T08:07:41;14.60;99.90
6690;DHT22;3382;51.576;8.076;2023-04-24T08:10:09;14.40;99.90
6690;DHT22;3382;51.576;8.076;2023-04-24T08:12:35;14.20;99.90
6690;DHT22;3382;51.576;8.076;2023-04-24T08:15:01;14.20;99.90
6690;DHT22;3382;51.576;8.076;2023-04-24T08:17:27;14.60;99.90
6690;DHT22;3382;51.576;8.076;2023-04-24T08:19:52;14.60;99.90
6690;DHT22;3382;51.576;8.076;2023-04-24T08:22:24;14.50;99.90
6690;DHT22;3382;51.576;8.076;2023-04-24T08:24:49;14.30;99.90
6690;DHT22;3382;51.576;8.076;2023-04-24T08:27:15;14.00;99.90
6690;DHT22;3382;51.576;8.076;2023-04-24T08:29:41;13.80;99.90
6690;DHT22;3382;51.576;8.076;2023-04-24T08:32:06;13.90;99.90
6690;DHT22;3382;51.576;8.076;2023-04-24T08:34:32;14.10;99.90
6690;DHT22;3382;51.576;8.076;2023-04-24T08:36:58;13.90;99.90
6690;DHT22;3382;51.576;8.076;2023-04-24T08:39:23;13.80;99.90
6690;DHT22;3382;51.576;8.076;2023-04-24T08:41:50;14.00;99.90
6690;DHT22;3382;51.576;8.076;2023-04-24T08:44:19;14.20;99.90
6690;DHT22;3382;51.576;8.076;2023-04-24T08:46:45;14.10;99.90
6690;DHT22;3382;51.576;8.076;2023-04-24T08:49:14;13.90;99.90
6690;DHT22;3382;51.576;8.076;2023-04-24T08:51:42;14.60;99.90
6690;DHT22;3382;51.576;8.076;2023-04-24T08:54:08;14.60;99.90
6690;DHT22;3382;51.576;8.076;2023-04-24T08:56:34;14.60;99.90
6690;DHT22;3382;51.576;8.076;2023-04-24T08:59:04;14.60;99.90
6690;DHT22;3382;51.576;8.076;2023-04-24T09:01:32;14.40;99.90
6690;DHT22;3382;51.576;8.076;2023-04-24T09:04:01;14.30;99.90
6690;DHT22;3382;51.576;8.076;2023-04-24T09:06:27;14.30;99.90
6690;DHT22;3382;51.576;8.076;2023-04-24T09:08:54;14.20;99.90
6690;DHT22;3382;51.576;8.076;2023-04-24T09:11:21;14.20;99.90
6690;DHT22;3382;51.576;8.076;2023-04-24T09:13:49;14.90;99.90
6690;DHT22;3382;51.576;8.076;2023-04-24T09:16:15;14.80;99.90
6690;DHT22;3382;51.576;8.076;2023-04-24T09:18:40;14.80;99.90
6690;DHT22;3382;51.576;8.076;2023-04-24T09:21:08;14.80;99.90
6690;DHT22;3382;51.576;8.076;2023-04-24T09:23:34;14.70;99.90
6690;DHT22;3382;51.576;8.076;2023-04-24T09:26:02;14.80;99.90
6690;DHT22;3382;51.576;8.076;2023-04-24T09:28:32;14.90;99.90
6690;DHT22;3382;51.576;8.076;2023-04-24T09:31:18;14.60;99.90
6690;DHT22;3382;51.576;8.076;2023-04-24T09:36:30;13.90;99.90
6690;DHT22;3382;51.576;8.076;2023-04-24T09:39:03;13.80;99.90
6690;DHT22;3382;51.576;8.076;2023-04-24T09:41:30;13.90;99.90
6690;DHT22;3382;51.576;8.076;2023-04-24T09:44:11;13.80;99.90
6690;DHT22;3382;51.576;8.076;2023-04-24T09:46:37;13.80;99.90
6690;DHT22;3382;51.576;8.076;2023-04-24T09:49:14;13.80;99.90
6690;DHT22;3382;51.576;8.076;2023-04-24T09:51:40;14.20;99.90
6690;DHT22;3382;51.576;8.076;2023-04-24T09:54:20;14.30;99.90
6690;DHT22;3382;51.576;8.076;2023-04-24T09:56:48;14.30;99.90
6690;DHT22;3382;51.576;8.076;2023-04-24T09:59:14;13.70;99.90
6690;DHT22;3382;51.576;8.076;2023-04-24T10:01:41;13.30;99.90
6690;DHT22;3382;51.576;8.076;2023-04-24T10:04:26;13.40;99.90
6690;DHT22;3382;51.576;8.076;2023-04-24T10:06:54;13.20;99.90
6690;DHT22;3382;51.576;8.076;2023-04-24T10:09:22;13.10;99.90
6690;DHT22;3382;51.576;8.076;2023-04-24T10:11:51;12.80;99.90
6690;DHT22;3382;51.576;8.076;2023-04-24T10:14:18;12.80;99.90
6690;DHT22;3382;51.576;8.076;2023-04-24T10:16:44;13.00;99.90
6690;DHT22;3382;51.576;8.076;2023-04-24T10:19:13;13.00;99.90
6690;DHT22;3382;51.576;8.076;2023-04-24T10:21:40;13.00;99.90
6690;DHT22;3382;51.576;8.076;2023-04-24T10:24:09;13.10;99.90
6690;DHT22;3382;51.576;8.076;2023-04-24T10:26:35;13.00;99.90
6690;DHT22;3382;51.576;8.076;2023-04-24T10:29:03;12.90;99.90
6690;DHT22;3382;51.576;8.076;2023-04-24T10:31:31;12.90;99.90
6690;DHT22;3382;51.576;8.076;2023-04-24T10:33:59;13.00;99.90
6690;DHT22;3382;51.576;8.076;2023-04-24T10:36:27;13.30;99.90
6690;DHT22;3382;51.576;8.076;2023-04-24T10:38:55;13.80;99.90
6690;DHT22;3382;51.576;8.076;2023-04-24T10:41:21;14.20;99.90
6690;DHT22;3382;51.576;8.076;2023-04-24T10:44:11;14.30;99.90
6690;DHT22;3382;51.576;8.076;2023-04-24T10:46:37;14.70;99.90
6690;DHT22;3382;51.576;8.076;2023-04-24T10:49:05;15.20;99.90
6690;DHT22;3382;51.576;8.076;2023-04-24T10:51:53;15.90;99.90
6690;DHT22;3382;51.576;8.076;2023-04-24T10:56:47;17.00;99.90
6690;DHT22;3382;51.576;8.076;2023-04-24T10:59:24;17.30;99.90
6690;DHT22;3382;51.576;8.076;2023-04-24T11:01:54;17.30;99.90
6690;DHT22;3382;51.576;8.076;2023-04-24T11:04:31;17.00;99.90
6690;DHT22;3382;51.576;8.076;2023-04-24T11:06:57;17.00;99.90
6690;DHT22;3382;51.576;8.076;2023-04-24T11:09:26;17.50;99.90
6690;DHT22;3382;51.576;8.076;2023-04-24T11:12:06;17.80;99.90
6690;DHT22;3382;51.576;8.076;2023-04-24T11:17:35;18.50;99.90
6690;DHT22;3382;51.576;8.076;2023-04-24T11:22:34;18.90;99.90
6690;DHT22;3382;51.576;8.076;2023-04-24T11:25:03;19.10;99.90
6690;DHT22;3382;51.576;8.076;2023-04-24T11:27:31;19.10;99.90
6690;DHT22;3382;51.576;8.076;2023-04-24T11:35:06;19.30;99.90
6690;DHT22;3382;51.576;8.076;2023-04-24T11:37:39;19.30;99.90
6690;DHT22;3382;51.576;8.076;2023-04-24T11:40:07;19.30;99.90
6690;DHT22;3382;51.576;8.076;2023-04-24T11:42:34;19.40;99.90
6690;DHT22;3382;51.576;8.076;2023-04-24T11:45:00;19.30;99.90
6690;DHT22;3382;51.576;8.076;2023-04-24T11:47:30;19.00;99.90
6690;DHT22;3382;51.576;8.076;2023-04-24T11:49:58;19.20;99.90
6690;DHT22;3382;51.576;8.076;2023-04-24T11:52:25;19.40;99.90
6690;DHT22;3382;51.576;8.076;2023-04-24T11:54:50;19.60;99.90
6690;DHT22;3382;51.576;8.076;2023-04-24T11:57:20;19.80;99.90
6690;DHT22;3382;51.576;8.076;2023-04-24T11:59:47;19.90;99.90
6690;DHT22;3382;51.576;8.076;2023-04-24T12:02:25;19.80;99.90
6690;DHT22;3382;51.576;8.076;2023-04-24T12:04:55;19.30;99.90
6690;DHT22;3382;51.576;8.076;2023-04-24T12:07:22;19.20;99.90
6690;DHT22;3382;51.576;8.076;2023-04-24T12:09:59;19.30;99.90
6690;DHT22;3382;51.576;8.076;2023-04-24T12:12:26;19.40;99.90
6690;DHT22;3382;51.576;8.076;2023-04-24T12:14:54;19.50;99.90
6690;DHT22;3382;51.576;8.076;2023-04-24T12:17:31;19.80;99.90
6690;DHT22;3382;51.576;8.076;2023-04-24T12:20:05;19.90;99.90
6690;DHT22;3382;51.576;8.076;2023-04-24T12:22:50;19.80;99.90
6690;DHT22;3382;51.576;8.076;2023-04-24T12:25:17;19.70;99.90
6690;DHT22;3382;51.576;8.076;2023-04-24T12:27:44;20.00;99.90
6690;DHT22;3382;51.576;8.076;2023-04-24T12:30:14;20.00;99.90
6690;DHT22;3382;51.576;8.076;2023-04-24T12:32:46;20.20;99.90
6690;DHT22;3382;51.576;8.076;2023-04-24T12:35:11;20.30;99.90
6690;DHT22;3382;51.576;8.076;2023-04-24T12:37:37;20.50;99.90
6690;DHT22;3382;51.576;8.076;2023-04-24T12:40:05;20.40;99.90
6690;DHT22;3382;51.576;8.076;2023-04-24T12:42:32;20.50;99.90
6690;DHT22;3382;51.576;8.076;2023-04-24T12:45:00;20.50;99.90
6690;DHT22;3382;51.576;8.076;2023-04-24T12:47:27;20.40;99.90
6690;DHT22;3382;51.576;8.076;2023-04-24T12:49:53;20.40;99.90
6690;DHT22;3382;51.576;8.076;2023-04-24T12:52:23;20.40;99.90
6690;DHT22;3382;51.576;8.076;2023-04-24T12:54:50;20.10;99.90
6690;DHT22;3382;51.576;8.076;2023-04-24T12:57:17;19.90;99.90
6690;DHT22;3382;51.576;8.076;2023-04-24T12:59:43;20.00;99.90
6690;DHT22;3382;51.576;8.076;2023-04-24T13:02:09;20.10;99.90
6690;DHT22;3382;51.576;8.076;2023-04-24T13:04:35;19.90;99.90
6690;DHT22;3382;51.576;8.076;2023-04-24T13:07:01;20.20;99.90
6690;DHT22;3382;51.576;8.076;2023-04-24T13:09:27;20.20;99.90
6690;DHT22;3382;51.576;8.076;2023-04-24T13:11:53;20.20;99.90
6690;DHT22;3382;51.576;8.076;2023-04-24T13:14:19;20.30;99.90
6690;DHT22;3382;51.576;8.076;2023-04-24T13:16:44;20.20;99.90
6690;DHT22;3382;51.576;8.076;2023-04-24T13:19:10;19.70;99.90
6690;DHT22;3382;51.576;8.076;2023-04-24T13:21:36;19.40;99.90
6690;DHT22;3382;51.576;8.076;2023-04-24T13:24:01;19.40;99.90
6690;DHT22;3382;51.576;8.076;2023-04-24T13:26:28;19.60;99.90
6690;DHT22;3382;51.576;8.076;2023-04-24T13:28:54;20.00;99.90
6690;DHT22;3382;51.576;8.076;2023-04-24T13:31:20;20.20;99.90
6690;DHT22;3382;51.576;8.076;2023-04-24T13:33:45;20.20;99.90
6690;DHT22;3382;51.576;8.076;2023-04-24T13:36:11;20.50;99.90
6690;DHT22;3382;51.576;8.076;2023-04-24T13:38:36;20.60;99.90
6690;DHT22;3382;51.576;8.076;2023-04-24T13:41:02;20.70;99.90
6690;DHT22;3382;51.576;8.076;2023-04-24T13:43:28;20.80;99.90
6690;DHT22;3382;51.576;8.076;2023-04-24T13:45:53;20.90;99.90
6690;DHT22;3382;51.576;8.076;2023-04-24T13:48:19;20.50;99.90
6690;DHT22;3382;51.576;8.076;2023-04-24T13:50:44;20.40;99.90
6690;DHT22;3382;51.576;8.076;2023-04-24T13:53:13;20.60;99.90
6690;DHT22;3382;51.576;8.076;2023-04-24T13:55:39;20.70;99.90
6690;DHT22;3382;51.576;8.076;2023-04-24T13:58:04;20.70;99.90
6690;DHT22;3382;51.576;8.076;2023-04-24T14:00:30;20.90;99.90
6690;DHT22;3382;51.576;8.076;2023-04-24T14:02:56;21.00;99.90
6690;DHT22;3382;51.576;8.076;2023-04-24T14:05:22;21.00;99.90
6690;DHT22;3382;51.576;8.076;2023-04-24T14:07:47;20.90;99.90
6690;DHT22;3382;51.576;8.076;2023-04-24T14:10:13;20.90;99.90
6690;DHT22;3382;51.576;8.076;2023-04-24T14:12:39;20.90;99.90
6690;DHT22;3382;51.576;8.076;2023-04-24T14:15:05;20.70;99.90
6690;DHT22;3382;51.576;8.076;2023-04-24T14:17:31;20.80;99.90
6690;DHT22;3382;51.576;8.076;2023-04-24T14:19:57;20.80;99.90
6690;DHT22;3382;51.576;8.076;2023-04-24T14:22:25;20.80;99.90
6690;DHT22;3382;51.576;8.076;2023-04-24T14:24:50;20.80;99.90
6690;DHT22;3382;51.576;8.076;2023-04-24T14:27:17;20.80;99.90
6690;DHT22;3382;51.576;8.076;2023-04-24T14:29:43;20.80;99.90
6690;DHT22;3382;51.576;8.076;2023-04-24T14:32:10;20.90;99.90
6690;DHT22;3382;51.576;8.076;2023-04-24T14:34:36;21.00;99.90
6690;DHT22;3382;51.576;8.076;2023-04-24T14:37:01;21.10;99.90
6690;DHT22;3382;51.576;8.076;2023-04-24T14:39:28;21.10;99.90
6690;DHT22;3382;51.576;8.076;2023-04-24T14:41:53;21.20;99.90
6690;DHT22;3382;51.576;8.076;2023-04-24T14:44:19;21.20;99.90
6690;DHT22;3382;51.576;8.076;2023-04-24T14:46:45;21.20;99.90
6690;DHT22;3382;51.576;8.076;2023-04-24T14:49:10;21.20;99.90
6690;DHT22;3382;51.576;8.076;2023-04-24T14:51:37;21.20;99.90
6690;DHT22;3382;51.576;8.076;2023-04-24T14:54:03;21.20;99.90
6690;DHT22;3382;51.576;8.076;2023-04-24T14:56:29;21.30;99.90
6690;DHT22;3382;51.576;8.076;2023-04-24T14:58:55;21.40;99.90
6690;DHT22;3382;51.576;8.076;2023-04-24T15:01:21;21.50;99.90
6690;DHT22;3382;51.576;8.076;2023-04-24T15:03:46;21.50;99.90
6690;DHT22;3382;51.576;8.076;2023-04-24T15:06:12;21.40;99.90
6690;DHT22;3382;51.576;8.076;2023-04-24T15:08:38;21.20;99.90
6690;DHT22;3382;51.576;8.076;2023-04-24T15:11:03;21.20;99.90
6690;DHT22;3382;51.576;8.076;2023-04-24T15:13:29;20.90;99.90
6690;DHT22;3382;51.576;8.076;2023-04-24T15:15:55;20.70;99.90
6690;DHT22;3382;51.576;8.076;2023-04-24T15:18:20;21.00;99.90
6690;DHT22;3382;51.576;8.076;2023-04-24T15:20:46;21.20;99.90
6690;DHT22;3382;51.576;8.076;2023-04-24T15:23:12;21.20;99.90
6690;DHT22;3382;51.576;8.076;2023-04-24T15:25:37;20.90;99.90
6690;DHT22;3382;51.576;8.076;2023-04-24T15:28:04;20.80;99.90
6690;DHT22;3382;51.576;8.076;2023-04-24T15:30:31;20.90;99.90
6690;DHT22;3382;51.576;8.076;2023-04-24T15:32:56;20.90;99.90
6690;DHT22;3382;51.576;8.076;2023-04-24T15:35:22;21.00;99.90
6690;DHT22;3382;51.576;8.076;2023-04-24T15:37:48;20.80;99.90
6690;DHT22;3382;51.576;8.076;2023-04-24T15:40:14;20.70;99.90
6690;DHT22;3382;51.576;8.076;2023-04-24T15:42:42;20.90;99.90
6690;DHT22;3382;51.576;8.076;2023-04-24T15:45:08;21.00;99.90
6690;DHT22;3382;51.576;8.076;2023-04-24T15:47:34;21.20;99.90
6690;DHT22;3382;51.576;8.076;2023-04-24T15:50:01;21.10;99.90
6690;DHT22;3382;51.576;8.076;2023-04-24T15:52:28;20.80;99.90
6690;DHT22;3382;51.576;8.076;2023-04-24T15:54:53;20.60;99.90
6690;DHT22;3382;51.576;8.076;2023-04-24T15:57:19;20.50;99.90
6690;DHT22;3382;51.576;8.076;2023-04-24T15:59:45;20.40;99.90
6690;DHT22;3382;51.576;8.076;2023-04-24T16:02:12;20.20;99.90
6690;DHT22;3382;51.576;8.076;2023-04-24T16:04:44;20.10;99.90
6690;DHT22;3382;51.576;8.076;2023-04-24T16:07:11;20.10;99.90
6690;DHT22;3382;51.576;8.076;2023-04-24T16:09:37;19.90;99.90
6690;DHT22;3382;51.576;8.076;2023-04-24T16:12:02;20.00;99.90
6690;DHT22;3382;51.576;8.076;2023-04-24T16:14:28;20.10;99.90